createdAt,value
2023-06-25T00:01:36.402Z,100289.81
2023-06-25T00:04:04.678Z,100288.91
2023-06-25T00:06:32.456Z,100300.22
2023-06-25T00:09:00.111Z,100296.81
2023-06-25T00:11:27.727Z,100294.19
2023-06-25T00:13:55.392Z,100293.31
2023-06-25T00:16:26.228Z,100294.22
2023-06-25T00:18:53.900Z,100289.88
2023-06-25T00:21:21.518Z,100290.72
2023-06-25T00:23:49.152Z,100281.13
2023-06-25T00:26:17.037Z,100291.53
2023-06-25T00:28:45.691Z,100283.66
2023-06-25T00:31:14.454Z,100284.56
2023-06-25T00:33:44.592Z,100277.59
2023-06-25T00:36:12.229Z,100274.13
2023-06-25T00:38:41.563Z,100273.28
2023-06-25T00:41:10.614Z,100276.75
2023-06-25T00:43:42.490Z,100276.78
2023-06-25T00:46:13.724Z,100283.69
2023-06-25T00:48:47.361Z,100281.97
2023-06-25T00:51:17.823Z,100274.19
2023-06-25T00:53:46.527Z,100270.72
2023-06-25T00:56:14.629Z,100272.44
2023-06-25T00:58:44.540Z,100267.25
2023-06-25T01:01:22.132Z,100262.06
2023-06-25T01:03:56.115Z,100264.63
2023-06-25T01:06:31.466Z,100261.16
2023-06-25T01:09:00.691Z,100251.59
2023-06-25T01:11:29.360Z,100251.63
2023-06-25T01:13:57.282Z,100256.84
2023-06-25T01:16:25.470Z,100249.88
2023-06-25T01:21:28.632Z,100253.34
2023-06-25T01:23:58.260Z,100253.34
2023-06-25T01:26:26.000Z,100248.13
2023-06-25T01:28:56.863Z,100247.25
2023-06-25T01:31:29.754Z,100247.28
2023-06-25T01:33:57.384Z,100245.53
2023-06-25T01:36:25.165Z,100242.06
2023-06-25T01:38:53.384Z,100239.47
2023-06-25T01:41:22.492Z,100238.59
2023-06-25T01:43:50.218Z,100240.34
2023-06-25T01:46:17.926Z,100236.00
2023-06-25T01:48:45.706Z,100236.00
2023-06-25T01:51:13.358Z,100234.25
2023-06-25T01:53:41.065Z,100225.63
2023-06-25T01:56:08.665Z,100226.50
2023-06-25T01:58:37.705Z,100227.38
2023-06-25T02:01:05.398Z,100225.66
2023-06-25T02:03:33.201Z,100223.91
2023-06-25T02:06:01.205Z,100223.06
2023-06-25T02:08:28.845Z,100226.50
2023-06-25T02:10:56.938Z,100211.78
2023-06-25T02:13:24.565Z,100218.72
2023-06-25T02:15:53.816Z,100213.50
2023-06-25T02:18:21.597Z,100213.50
2023-06-25T02:20:49.219Z,100212.63
2023-06-25T02:23:16.942Z,100213.50
2023-06-25T02:25:44.623Z,100220.41
2023-06-25T02:28:12.269Z,100216.09
2023-06-25T02:30:40.029Z,100216.97
2023-06-25T02:33:09.114Z,100213.50
2023-06-25T02:35:37.185Z,100223.94
2023-06-25T02:38:05.275Z,100223.91
2023-06-25T02:40:32.932Z,100215.25
2023-06-25T02:43:00.592Z,100209.19
2023-06-25T02:45:28.284Z,100207.47
2023-06-25T02:47:55.983Z,100212.69
2023-06-25T02:50:25.045Z,100212.69
2023-06-25T02:52:52.756Z,100210.06
2023-06-25T02:55:21.354Z,100210.94
2023-06-25T02:57:49.002Z,100210.06
2023-06-25T03:00:17.319Z,100208.34
2023-06-25T03:02:45.819Z,100215.28
2023-06-25T03:05:13.768Z,100214.41
2023-06-25T03:07:51.926Z,100217.91
2023-06-25T03:10:21.067Z,100210.06
2023-06-25T03:12:48.693Z,100211.81
2023-06-25T03:15:18.340Z,100211.81
2023-06-25T03:17:46.195Z,100205.75
2023-06-25T03:20:15.043Z,100197.94
2023-06-25T03:22:43.379Z,100206.59
2023-06-25T03:25:12.714Z,100203.13
2023-06-25T03:27:44.064Z,100204.00
2023-06-25T03:30:12.261Z,100199.66
2023-06-25T03:32:40.090Z,100205.72
2023-06-25T03:35:08.350Z,100204.00
2023-06-25T03:37:36.013Z,100202.25
2023-06-25T03:40:05.174Z,100206.59
2023-06-25T03:42:34.567Z,100202.25
2023-06-25T03:45:02.562Z,100208.34
2023-06-25T03:47:31.424Z,100201.38
2023-06-25T03:49:59.339Z,100201.38
2023-06-25T03:52:27.799Z,100198.78
2023-06-25T03:54:55.456Z,100191.00
2023-06-25T03:57:24.207Z,100197.06
2023-06-25T03:59:53.221Z,100191.84
2023-06-25T04:02:21.968Z,100191.81
2023-06-25T04:04:49.655Z,100187.47
2023-06-25T04:07:17.324Z,100197.00
2023-06-25T04:09:45.645Z,100196.19
2023-06-25T04:12:13.503Z,100187.50
2023-06-25T04:14:41.313Z,100185.78
2023-06-25T04:17:11.120Z,100190.97
2023-06-25T04:19:39.660Z,100190.13
2023-06-25T04:22:07.519Z,100194.44
2023-06-25T04:24:35.374Z,100190.09
2023-06-25T04:27:03.555Z,100194.44
2023-06-25T04:29:31.379Z,100192.69
2023-06-25T04:32:02.781Z,100200.53
2023-06-25T04:34:32.843Z,100187.50
2023-06-25T04:37:00.555Z,100196.16
2023-06-25T04:39:28.548Z,100191.84
2023-06-25T04:41:58.253Z,100192.72
2023-06-25T04:44:26.604Z,100198.81
2023-06-25T04:46:55.894Z,100197.03
2023-06-25T04:49:24.264Z,100207.47
2023-06-25T04:51:53.308Z,100214.41
2023-06-25T04:54:20.952Z,100208.34
2023-06-25T04:56:48.620Z,100206.59
2023-06-25T04:59:16.254Z,100201.38
2023-06-25T05:01:44.051Z,100197.03
2023-06-25T05:04:11.684Z,100201.34
2023-06-25T05:06:39.399Z,100197.88
2023-06-25T05:09:08.392Z,100200.47
2023-06-25T05:11:36.584Z,100204.78
2023-06-25T05:14:04.130Z,100211.72
2023-06-25T05:16:31.684Z,100208.22
2023-06-25T05:18:59.481Z,100203.84
2023-06-25T05:21:27.059Z,100199.53
2023-06-25T05:23:59.625Z,100206.47
2023-06-25T05:26:28.840Z,100208.22
2023-06-25T05:28:57.292Z,100208.19
2023-06-25T05:31:24.991Z,100201.28
2023-06-25T05:33:52.737Z,100208.19
2023-06-25T05:36:20.403Z,100206.41
2023-06-25T05:38:49.922Z,100205.53
2023-06-25T05:41:19.053Z,100197.63
2023-06-25T05:43:48.098Z,100194.09
2023-06-25T05:46:15.850Z,100199.22
2023-06-25T05:48:43.534Z,100203.56
2023-06-25T05:51:11.268Z,100202.63
2023-06-25T05:53:41.149Z,100202.63
2023-06-25T05:56:09.101Z,100206.03
2023-06-25T05:58:37.605Z,100202.47
2023-06-25T06:01:06.685Z,100205.91
2023-06-25T06:03:34.425Z,100205.81
2023-06-25T06:06:02.751Z,100207.41
2023-06-25T06:08:30.509Z,100209.88
2023-06-25T06:10:58.183Z,100207.13
2023-06-25T06:13:25.827Z,100204.34
2023-06-25T06:15:53.484Z,100199.06
2023-06-25T06:18:22.500Z,100205.13
2023-06-25T06:20:50.490Z,100206.81
2023-06-25T06:23:18.180Z,100205.00
2023-06-25T06:25:45.772Z,100201.44
2023-06-25T06:28:13.352Z,100203.03
2023-06-25T06:30:40.997Z,100201.22
2023-06-25T06:33:08.673Z,100196.81
2023-06-25T06:35:37.891Z,100198.47
2023-06-25T06:38:05.713Z,100198.31
2023-06-25T06:40:33.292Z,100203.38
2023-06-25T06:43:00.866Z,100195.41
2023-06-25T06:45:28.556Z,100191.75
2023-06-25T06:47:56.216Z,100192.53
2023-06-25T06:50:23.806Z,100193.28
2023-06-25T06:52:52.706Z,100189.63
2023-06-25T06:55:20.328Z,100189.44
2023-06-25T06:57:48.771Z,100196.19
2023-06-25T07:00:19.190Z,100196.00
2023-06-25T07:02:46.933Z,100192.31
2023-06-25T07:05:14.777Z,100188.63
2023-06-25T07:07:42.732Z,100188.41
2023-06-25T07:10:12.110Z,100187.31
2023-06-25T07:12:39.770Z,100180.06
2023-06-25T07:15:08.495Z,100186.84
2023-06-25T07:17:36.306Z,100181.38
2023-06-25T07:20:04.025Z,100181.16
2023-06-25T07:22:33.995Z,100170.41
2023-06-25T07:25:01.822Z,100183.19
2023-06-25T07:27:30.796Z,100172.47
2023-06-25T07:29:58.473Z,100180.09
2023-06-25T07:32:26.079Z,100173.56
2023-06-25T07:34:53.681Z,100176.91
2023-06-25T07:37:21.297Z,100173.06
2023-06-25T07:39:48.871Z,100177.97
2023-06-25T07:42:16.524Z,100176.56
2023-06-25T07:44:55.789Z,100180.03
2023-06-25T07:47:24.429Z,100186.78
2023-06-25T07:49:52.080Z,100176.13
2023-06-25T07:52:19.817Z,100175.09
2023-06-25T07:54:47.371Z,100176.56
2023-06-25T07:57:15.628Z,100169.34
2023-06-25T07:59:52.080Z,100173.31
2023-06-25T08:02:21.604Z,100174.66
2023-06-25T08:04:50.277Z,100164.72
2023-06-25T08:07:18.080Z,100168.19
2023-06-25T08:09:46.184Z,100171.53
2023-06-25T08:12:15.647Z,100160.81
2023-06-25T08:14:44.732Z,100165.06
2023-06-25T08:17:12.395Z,100163.16
2023-06-25T08:19:40.041Z,100157.63
2023-06-25T08:22:07.890Z,100160.09
2023-06-25T08:24:35.503Z,100166.88
2023-06-25T08:27:03.101Z,100163.97
2023-06-25T08:29:31.977Z,100167.03
2023-06-25T08:32:00.959Z,100161.69
2023-06-25T08:34:28.740Z,100161.53
2023-06-25T08:36:56.509Z,100162.66
2023-06-25T08:39:24.352Z,100166.84
2023-06-25T08:41:52.235Z,100157.09
2023-06-25T08:44:19.959Z,100158.88
2023-06-25T08:46:49.419Z,100155.19
2023-06-25T08:49:18.781Z,100159.25
2023-06-25T08:51:46.523Z,100162.38
2023-06-25T08:54:14.191Z,100160.22
2023-06-25T08:56:42.003Z,100155.78
2023-06-25T08:59:09.737Z,100156.03
2023-06-25T09:01:37.436Z,100149.66
2023-06-25T09:04:05.275Z,100149.53
2023-06-25T09:06:54.287Z,100150.38
2023-06-25T09:09:28.312Z,100153.72
2023-06-25T09:11:55.953Z,100146.09
2023-06-25T09:14:23.828Z,100146.09
2023-06-25T09:16:52.211Z,100135.22
2023-06-25T09:19:20.412Z,100131.66
2023-06-25T09:21:49.752Z,100139.66
2023-06-25T09:24:18.982Z,100127.31
2023-06-25T09:26:47.964Z,100120.22
2023-06-25T09:29:16.978Z,100123.41
2023-06-25T09:31:45.155Z,100130.06
2023-06-25T09:34:14.992Z,100126.75
2023-06-25T09:36:42.712Z,100124.28
2023-06-25T09:39:13.685Z,100119.16
2023-06-25T09:41:43.234Z,100123.31
2023-06-25T09:44:11.940Z,100123.69
2023-06-25T09:46:41.582Z,100117.13
2023-06-25T09:49:09.466Z,100104.59
2023-06-25T09:51:44.413Z,100107.81
2023-06-25T09:54:17.062Z,100102.44
2023-06-25T09:56:46.832Z,100102.19
2023-06-25T09:59:14.555Z,100091.50
2023-06-25T10:01:42.614Z,100092.63
2023-06-25T10:04:10.741Z,100091.31
2023-06-25T10:06:39.584Z,100101.81
2023-06-25T10:09:07.886Z,100091.16
2023-06-25T10:11:37.073Z,100089.19
2023-06-25T10:14:06.494Z,100108.63
2023-06-25T10:19:05.555Z,100091.13
2023-06-25T10:21:33.373Z,100083.34
2023-06-25T10:24:03.081Z,100084.72
2023-06-25T10:26:32.332Z,100077.25
2023-06-25T10:29:03.283Z,100079.47
2023-06-25T10:31:39.252Z,100077.31
2023-06-25T10:34:08.440Z,100069.75
2023-06-25T10:36:36.242Z,100075.34
2023-06-25T10:39:04.761Z,100066.19
2023-06-25T10:41:33.785Z,100071.19
2023-06-25T10:44:02.760Z,100065.25
2023-06-25T10:46:34.390Z,100062.66
2023-06-25T10:49:05.063Z,100067.38
2023-06-25T10:51:35.056Z,100059.97
2023-06-25T10:54:02.645Z,100055.09
2023-06-25T10:56:30.275Z,100058.25
2023-06-25T10:58:58.421Z,100046.66
2023-06-25T11:01:34.882Z,100053.19
2023-06-25T11:04:02.926Z,100054.38
2023-06-25T11:06:38.247Z,100043.69
2023-06-25T11:09:05.988Z,100044.28
2023-06-25T11:11:33.663Z,100029.06
2023-06-25T11:14:02.310Z,100029.69
2023-06-25T11:16:31.297Z,100028.31
2023-06-25T11:18:58.911Z,100029.03
2023-06-25T11:21:26.487Z,100033.34
2023-06-25T11:23:54.144Z,100026.16
2023-06-25T11:26:22.816Z,100025.13
2023-06-25T11:28:50.873Z,100010.91
2023-06-25T11:31:18.541Z,100020.91
2023-06-25T11:33:56.663Z,100024.50
2023-06-25T11:36:24.960Z,100020.34
2023-06-25T11:38:52.598Z,100015.84
2023-06-25T11:41:28.371Z,100015.75
2023-06-25T11:43:55.942Z,100014.47
2023-06-25T11:46:23.594Z,100016.44
2023-06-25T11:48:52.330Z,100014.69
2023-06-25T11:51:21.349Z,100008.09
2023-06-25T11:53:49.030Z,100006.94
2023-06-25T11:56:16.685Z,100005.50
2023-06-25T11:58:44.215Z,100005.72
2023-06-25T12:01:12.883Z,99990.28
2023-06-25T12:03:40.525Z,99995.22
2023-06-25T12:06:08.637Z,99992.81
2023-06-25T12:08:37.609Z,99994.84
2023-06-25T12:11:05.272Z,99993.88
2023-06-25T12:13:33.042Z,99995.97
2023-06-25T12:16:00.619Z,99983.41
2023-06-25T12:18:28.307Z,99984.91
2023-06-25T12:20:55.859Z,99978.06
2023-06-25T12:23:23.477Z,99966.75
2023-06-25T12:25:52.407Z,99970.75
2023-06-25T12:28:20.008Z,99967.94
2023-06-25T12:30:47.726Z,99969.75
2023-06-25T12:33:15.502Z,99957.31
2023-06-25T12:35:43.205Z,99965.81
2023-06-25T12:38:10.831Z,99958.81
2023-06-25T12:40:38.445Z,99956.19
2023-06-25T12:43:07.392Z,99947.13
2023-06-25T12:45:35.118Z,99942.16
2023-06-25T12:48:02.899Z,99937.28
2023-06-25T12:50:30.611Z,99938.13
2023-06-25T12:52:58.191Z,99934.38
2023-06-25T12:55:25.825Z,99943.50
2023-06-25T12:57:53.499Z,99931.78
2023-06-25T13:00:33.840Z,99940.78
2023-06-25T13:03:08.475Z,99935.00
2023-06-25T13:05:36.318Z,99928.72
2023-06-25T13:08:04.150Z,99932.63
2023-06-25T13:10:31.799Z,99936.34
2023-06-25T13:12:59.524Z,99919.28
2023-06-25T13:15:29.065Z,99917.41
2023-06-25T13:17:56.893Z,99921.97
2023-06-25T13:20:24.564Z,99924.97
2023-06-25T13:22:52.534Z,99919.25
2023-06-25T13:25:20.176Z,99920.56
2023-06-25T13:27:47.861Z,99919.03
2023-06-25T13:30:15.521Z,99917.59
2023-06-25T13:32:44.542Z,99915.84
2023-06-25T13:35:12.218Z,99902.16
2023-06-25T13:37:39.845Z,99896.66
2023-06-25T13:40:08.845Z,99899.75
2023-06-25T13:42:36.613Z,99890.59
2023-06-25T13:45:04.924Z,99892.22
2023-06-25T13:47:32.594Z,99887.22
2023-06-25T13:50:02.017Z,99886.16
2023-06-25T13:52:29.796Z,99878.28
2023-06-25T13:54:57.507Z,99875.81
2023-06-25T13:57:25.115Z,99880.75
2023-06-25T13:59:52.727Z,99884.44
2023-06-25T14:02:20.442Z,99875.47
2023-06-25T14:04:48.377Z,99869.69
2023-06-25T14:07:17.670Z,99869.13
2023-06-25T14:09:45.329Z,99866.47
2023-06-25T14:12:13.001Z,99871.88
2023-06-25T14:14:40.928Z,99864.97
2023-06-25T14:17:08.593Z,99875.59
2023-06-25T14:19:36.307Z,99863.44
2023-06-25T14:22:04.189Z,99860.22
2023-06-25T14:24:33.157Z,99856.41
2023-06-25T14:27:00.824Z,99854.44
2023-06-25T14:29:28.552Z,99855.28
2023-06-25T14:31:56.194Z,99851.13
2023-06-25T14:34:23.957Z,99850.97
2023-06-25T14:36:51.523Z,99854.44
2023-06-25T14:39:19.193Z,99844.78
2023-06-25T14:41:48.075Z,99839.31
2023-06-25T14:44:15.693Z,99842.97
2023-06-25T14:46:43.307Z,99836.97
2023-06-25T14:49:10.948Z,99834.13
2023-06-25T14:51:38.937Z,99832.09
2023-06-25T14:54:06.565Z,99814.50
2023-06-25T14:56:34.719Z,99826.47
2023-06-25T14:59:03.947Z,99818.84
2023-06-25T15:01:31.588Z,99814.47
2023-06-25T15:03:59.508Z,99819.28
2023-06-25T15:06:35.591Z,99818.66
2023-06-25T15:09:04.101Z,99813.53
2023-06-25T15:11:31.785Z,99806.13
2023-06-25T15:14:00.600Z,99807.75
2023-06-25T15:16:30.059Z,99803.53
2023-06-25T15:18:57.771Z,99796.03
2023-06-25T15:21:25.427Z,99800.22
2023-06-25T15:23:53.143Z,99794.47
2023-06-25T15:26:20.789Z,99792.59
2023-06-25T15:28:48.516Z,99784.25
2023-06-25T15:31:16.261Z,99791.16
2023-06-25T15:33:45.260Z,99792.59
2023-06-25T15:36:13.512Z,99777.47
2023-06-25T15:38:42.024Z,99783.19
2023-06-25T15:41:09.824Z,99777.88
2023-06-25T15:43:37.476Z,99767.09
2023-06-25T15:46:05.226Z,99768.69
2023-06-25T15:48:33.546Z,99770.25
2023-06-25T15:51:02.562Z,99768.50
2023-06-25T15:53:30.216Z,99766.03
2023-06-25T15:55:57.984Z,99770.78
2023-06-25T15:58:25.648Z,99768.94
2023-06-25T16:00:53.320Z,99767.66
2023-06-25T16:03:21.157Z,99766.75
2023-06-25T16:05:48.866Z,99760.22
2023-06-25T16:08:17.895Z,99762.75
2023-06-25T16:10:45.509Z,99750.88
2023-06-25T16:13:13.107Z,99748.66
2023-06-25T16:15:41.032Z,99748.84
2023-06-25T16:18:08.783Z,99747.69
2023-06-25T16:20:36.454Z,99751.78
2023-06-25T16:23:04.215Z,99741.63
2023-06-25T16:25:33.448Z,99742.28
2023-06-25T16:28:01.160Z,99741.09
2023-06-25T16:30:29.007Z,99737.81
2023-06-25T16:32:57.188Z,99736.78
2023-06-25T16:35:24.961Z,99743.72
2023-06-25T16:37:57.533Z,99729.53
2023-06-25T16:40:28.952Z,99736.75
2023-06-25T16:42:58.101Z,99736.13
2023-06-25T16:45:25.739Z,99734.06
2023-06-25T16:47:53.376Z,99737.22
2023-06-25T16:50:21.043Z,99729.88
2023-06-25T16:52:48.660Z,99735.50
2023-06-25T16:55:16.292Z,99716.84
2023-06-25T16:57:44.090Z,99727.38
2023-06-25T17:00:14.249Z,99720.53
2023-06-25T17:02:44.417Z,99721.47
2023-06-25T17:05:14.670Z,99729.34
2023-06-25T17:07:42.376Z,99726.69
2023-06-25T17:10:10.455Z,99727.91
2023-06-25T17:12:38.143Z,99722.03
2023-06-25T17:15:06.195Z,99724.44
2023-06-25T17:17:35.133Z,99724.22
2023-06-25T17:20:03.016Z,99728.38
2023-06-25T17:22:30.653Z,99721.06
2023-06-25T17:24:58.274Z,99717.03
2023-06-25T17:27:25.928Z,99723.88
2023-06-25T17:29:54.084Z,99725.75
2023-06-25T17:32:21.948Z,99726.69
2023-06-25T17:34:50.981Z,99728.38
2023-06-25T17:37:18.574Z,99720.72
2023-06-25T17:39:46.312Z,99732.59
2023-06-25T17:42:14.120Z,99728.94
2023-06-25T17:44:41.782Z,99720.75
2023-06-25T17:47:09.541Z,99732.97
2023-06-25T17:49:37.176Z,99730.47
2023-06-25T17:52:07.477Z,99735.06
2023-06-25T17:54:35.140Z,99727.53
2023-06-25T17:57:03.329Z,99719.78
2023-06-25T17:59:31.087Z,99725.94
2023-06-25T18:01:58.808Z,99727.25
2023-06-25T18:04:26.498Z,99724.84
2023-06-25T18:06:54.151Z,99729.28
2023-06-25T18:09:23.132Z,99725.50
2023-06-25T18:11:50.794Z,99723.44
2023-06-25T18:14:18.457Z,99720.47
2023-06-25T18:16:46.045Z,99723.69
2023-06-25T18:19:13.640Z,99725.59
2023-06-25T18:21:41.250Z,99728.38
2023-06-25T18:24:08.954Z,99725.84
2023-06-25T18:26:38.670Z,99722.00
2023-06-25T18:29:06.430Z,99719.59
2023-06-25T18:31:34.690Z,99716.06
2023-06-25T18:34:02.882Z,99711.31
2023-06-25T18:36:30.656Z,99719.81
2023-06-25T18:38:58.288Z,99715.38
2023-06-25T18:41:25.929Z,99724.81
2023-06-25T18:43:54.928Z,99720.94
2023-06-25T18:46:22.646Z,99724.75
2023-06-25T18:48:50.326Z,99720.00
2023-06-25T18:51:18.044Z,99726.69
2023-06-25T18:53:45.712Z,99732.56
2023-06-25T18:56:13.361Z,99728.34
2023-06-25T18:58:41.470Z,99740.47
2023-06-25T19:01:10.639Z,99732.31
2023-06-25T19:03:38.603Z,99742.75
2023-06-25T19:06:06.827Z,99732.69
2023-06-25T19:08:34.479Z,99737.13
2023-06-25T19:11:02.144Z,99742.69
2023-06-25T19:13:29.754Z,99738.28
2023-06-25T19:15:57.443Z,99742.03
2023-06-25T19:18:26.423Z,99744.63
2023-06-25T19:20:54.063Z,99749.84
2023-06-25T19:25:53.513Z,99745.06
2023-06-25T19:28:21.584Z,99744.81
2023-06-25T19:30:49.348Z,99742.53
2023-06-25T19:33:17.192Z,99740.38
2023-06-25T19:35:46.532Z,99748.66
2023-06-25T19:38:14.163Z,99741.94
2023-06-25T19:40:41.853Z,99745.53
2023-06-25T19:43:09.546Z,99752.28
2023-06-25T19:45:37.197Z,99754.06
2023-06-25T19:48:05.156Z,99764.50
2023-06-25T19:50:32.856Z,99764.72
2023-06-25T19:53:01.881Z,99768.44
2023-06-25T19:55:29.548Z,99765.63
2023-06-25T19:57:57.184Z,99770.88
2023-06-25T20:00:24.784Z,99775.97
2023-06-25T20:02:52.446Z,99767.34
2023-06-25T20:05:20.482Z,99772.25
2023-06-25T20:07:49.385Z,99773.03
2023-06-25T20:10:19.292Z,99769.31
2023-06-25T20:12:49.633Z,99777.78
2023-06-25T20:15:18.488Z,99778.38
2023-06-25T20:17:46.282Z,99782.50
2023-06-25T20:20:14.278Z,99779.41
2023-06-25T20:22:41.940Z,99784.13
2023-06-25T20:25:10.383Z,99783.09
2023-06-25T20:27:39.424Z,99782.94
2023-06-25T20:30:08.496Z,99787.63
2023-06-25T20:32:36.149Z,99787.97
2023-06-25T20:35:03.880Z,99788.28
2023-06-25T20:37:31.586Z,99784.31
2023-06-25T20:39:59.391Z,99782.00
2023-06-25T20:42:27.069Z,99792.00
2023-06-25T20:44:56.264Z,99783.72
2023-06-25T20:47:23.923Z,99788.34
2023-06-25T20:49:51.789Z,99798.13
2023-06-25T20:52:19.413Z,99792.22
2023-06-25T20:54:49.639Z,99792.56
2023-06-25T20:57:17.321Z,99807.66
2023-06-25T20:59:45.723Z,99804.41
2023-06-25T21:02:14.845Z,99811.66
2023-06-25T21:04:42.535Z,99811.78
2023-06-25T21:11:22.579Z,99814.84
2023-06-25T21:13:50.227Z,99820.22
2023-06-25T21:16:17.896Z,99812.53
2023-06-25T21:18:46.937Z,99818.84
2023-06-25T21:21:14.637Z,99820.78
2023-06-25T21:23:42.276Z,99821.00
2023-06-25T21:26:09.861Z,99822.22
2023-06-25T21:28:38.126Z,99825.06
2023-06-25T21:31:05.794Z,99826.28
2023-06-25T21:33:33.488Z,99824.72
2023-06-25T21:36:02.426Z,99826.66
2023-06-25T21:38:30.028Z,99823.28
2023-06-25T21:40:57.861Z,99823.56
2023-06-25T21:43:25.408Z,99830.69
2023-06-25T21:45:53.110Z,99830.81
2023-06-25T21:48:20.658Z,99828.41
2023-06-25T21:50:48.318Z,99827.50
2023-06-25T21:53:20.275Z,99820.63
2023-06-25T21:55:47.957Z,99829.53
2023-06-25T21:58:15.695Z,99830.59
2023-06-25T22:00:43.339Z,99829.75
2023-06-25T22:03:11.104Z,99828.09
2023-06-25T22:05:38.709Z,99826.47
2023-06-25T22:08:06.626Z,99825.72
2023-06-25T22:10:35.783Z,99833.72
2023-06-25T22:13:03.536Z,99828.53
2023-06-25T22:15:31.193Z,99827.81
2023-06-25T22:17:59.191Z,99835.66
2023-06-25T22:20:30.997Z,99830.44
2023-06-25T22:22:58.700Z,99834.94
2023-06-25T22:25:26.280Z,99828.03
2023-06-25T22:27:55.826Z,99834.28
2023-06-25T22:30:23.495Z,99832.66
2023-06-25T22:32:51.140Z,99837.97
2023-06-25T22:35:18.839Z,99832.78
2023-06-25T22:37:46.507Z,99829.38
2023-06-25T22:40:14.232Z,99827.78
2023-06-25T22:42:41.927Z,99822.69
2023-06-25T22:45:11.143Z,99820.13
2023-06-25T22:47:40.389Z,99818.44
2023-06-25T22:50:09.230Z,99819.41
2023-06-25T22:52:36.978Z,99816.06
2023-06-25T22:55:04.716Z,99817.00
2023-06-25T22:57:32.272Z,99819.50
2023-06-25T22:59:59.844Z,99813.28
2023-06-25T23:02:28.909Z,99807.16
2023-06-25T23:04:57.240Z,99817.44
2023-06-25T23:07:24.981Z,99812.09
2023-06-25T23:09:52.620Z,99811.91
2023-06-25T23:12:20.270Z,99817.16
2023-06-25T23:14:47.873Z,99813.00
2023-06-25T23:17:15.606Z,99807.13
2023-06-25T23:19:45.713Z,99810.09
2023-06-25T23:22:14.595Z,99808.44
2023-06-25T23:24:45.113Z,99810.84
2023-06-25T23:27:13.520Z,99809.13
2023-06-25T23:29:41.560Z,99804.78
2023-06-25T23:32:11.839Z,99804.88
2023-06-25T23:34:40.097Z,99800.63
2023-06-25T23:37:09.048Z,99801.41
2023-06-25T23:39:37.733Z,99809.16
2023-06-25T23:42:05.950Z,99803.72
2023-06-25T23:44:34.203Z,99809.72
2023-06-25T23:47:01.847Z,99795.84
2023-06-25T23:49:29.730Z,99805.59
2023-06-25T23:51:57.281Z,99804.63
2023-06-25T23:54:26.280Z,99801.19
2023-06-25T23:56:53.875Z,99799.53
2023-06-25T23:59:21.453Z,99803.25
